createdAt,value
2019-03-10T00:00:10.365Z,998.11
2019-03-10T00:01:10.371Z,998.10
2019-03-10T00:02:10.615Z,998.12
2019-03-10T00:03:10.373Z,998.15
2019-03-10T00:04:10.373Z,998.15
2019-03-10T00:05:10.352Z,998.14
2019-03-10T00:06:10.352Z,998.14
2019-03-10T00:07:10.363Z,998.14
2019-03-10T00:08:10.369Z,998.14
2019-03-10T00:09:10.375Z,998.15
2019-03-10T00:10:10.363Z,998.21
2019-03-10T00:11:10.364Z,998.28
2019-03-10T00:12:10.374Z,998.26
2019-03-10T00:13:10.363Z,998.29
2019-03-10T00:14:10.364Z,998.36
2019-03-10T00:15:10.372Z,998.32
2019-03-10T00:16:10.362Z,998.30
2019-03-10T00:17:10.361Z,998.29
2019-03-10T00:18:10.373Z,998.26
2019-03-10T00:19:10.368Z,998.26
2019-03-10T00:20:10.385Z,998.19
2019-03-10T00:21:10.364Z,998.19
2019-03-10T00:22:10.368Z,998.11
2019-03-10T00:23:10.371Z,998.06
2019-03-10T00:24:10.361Z,998.04
2019-03-10T00:25:10.356Z,997.98
2019-03-10T00:26:10.365Z,997.93
2019-03-10T00:27:10.371Z,997.92
2019-03-10T00:28:10.360Z,997.86
2019-03-10T00:29:10.366Z,997.82
2019-03-10T00:30:10.354Z,997.86
2019-03-10T00:31:10.363Z,997.88
2019-03-10T00:32:08.516Z,997.88
2019-03-10T00:33:10.362Z,997.86
2019-03-10T00:34:10.372Z,997.86
2019-03-10T00:35:10.371Z,997.84
2019-03-10T00:36:10.361Z,997.84
2019-03-10T00:37:10.363Z,997.78
2019-03-10T00:38:10.374Z,997.76
2019-03-10T00:39:10.361Z,997.72
2019-03-10T00:40:10.360Z,997.70
2019-03-10T00:41:10.361Z,997.71
2019-03-10T00:42:10.365Z,997.64
2019-03-10T00:43:10.366Z,997.67
2019-03-10T00:44:10.360Z,997.72
2019-03-10T00:45:10.360Z,997.70
2019-03-10T00:46:09.360Z,997.66
2019-03-10T00:47:09.873Z,997.61
2019-03-10T00:48:09.862Z,997.60
2019-03-10T00:49:09.858Z,997.67
2019-03-10T00:50:09.858Z,997.68
2019-03-10T00:51:09.860Z,997.67
2019-03-10T00:52:09.861Z,997.73
2019-03-10T00:53:09.871Z,997.73
2019-03-10T00:54:09.860Z,997.72
2019-03-10T00:55:09.860Z,997.72
2019-03-10T00:56:09.858Z,997.72
2019-03-10T00:57:09.857Z,997.73
2019-03-10T00:58:09.861Z,997.73
2019-03-10T00:59:09.868Z,997.66
2019-03-10T01:00:09.858Z,997.68
2019-03-10T01:01:09.857Z,997.58
2019-03-10T01:02:09.860Z,997.72
2019-03-10T01:03:09.860Z,997.63
2019-03-10T01:04:09.859Z,997.67
2019-03-10T01:05:09.878Z,997.60
2019-03-10T01:06:09.859Z,997.63
2019-03-10T01:07:09.863Z,997.62
2019-03-10T01:08:09.858Z,997.63
2019-03-10T01:09:09.845Z,997.54
2019-03-10T01:10:09.863Z,997.57
2019-03-10T01:11:09.857Z,997.56
2019-03-10T01:12:09.861Z,997.55
2019-03-10T01:13:09.860Z,997.52
2019-03-10T01:14:09.856Z,997.51
2019-03-10T01:15:09.857Z,997.43
2019-03-10T01:16:09.869Z,997.49
2019-03-10T01:17:09.866Z,997.43
2019-03-10T01:18:09.858Z,997.43
2019-03-10T01:19:09.858Z,997.40
2019-03-10T01:20:09.855Z,997.36
2019-03-10T01:21:09.861Z,997.33
2019-03-10T01:22:09.854Z,997.33
2019-03-10T01:23:09.854Z,997.33
2019-03-10T01:24:09.871Z,997.31
2019-03-10T01:25:09.857Z,997.29
2019-03-10T01:26:09.856Z,997.21
2019-03-10T01:27:09.867Z,997.24
2019-03-10T01:28:09.868Z,997.19
2019-03-10T01:29:09.843Z,997.20
2019-03-10T01:30:07.893Z,997.16
2019-03-10T01:31:09.856Z,997.16
2019-03-10T01:32:09.856Z,997.09
2019-03-10T01:33:09.359Z,997.05
2019-03-10T01:34:09.344Z,997.00
2019-03-10T01:35:09.352Z,996.96
2019-03-10T01:36:09.365Z,996.96
2019-03-10T01:37:09.355Z,996.91
2019-03-10T01:38:09.357Z,996.89
2019-03-10T01:39:09.365Z,996.93
2019-03-10T01:40:09.352Z,996.93
2019-03-10T01:41:09.353Z,996.90
2019-03-10T01:42:09.349Z,996.87
2019-03-10T01:43:09.352Z,996.83
2019-03-10T01:44:09.357Z,996.77
2019-03-10T01:45:09.371Z,996.82
2019-03-10T01:46:09.342Z,996.76
2019-03-10T01:47:09.352Z,996.77
2019-03-10T01:48:09.354Z,996.74
2019-03-10T01:49:09.359Z,996.73
2019-03-10T01:50:09.356Z,996.76
2019-03-10T01:51:09.368Z,996.67
2019-03-10T01:52:09.352Z,996.71
2019-03-10T01:53:09.357Z,996.62
2019-03-10T01:54:09.354Z,996.59
2019-03-10T01:55:09.353Z,996.54
2019-03-10T01:56:09.375Z,996.45
2019-03-10T01:57:09.367Z,996.51
2019-03-10T01:58:09.353Z,996.35
2019-03-10T01:59:07.591Z,996.37
2019-03-10T02:00:09.352Z,996.31
2019-03-10T02:01:09.350Z,996.28
2019-03-10T02:02:09.364Z,996.27
2019-03-10T02:03:09.352Z,996.23
2019-03-10T02:04:09.352Z,996.27
2019-03-10T02:05:07.503Z,996.24
2019-03-10T02:06:09.352Z,996.20
2019-03-10T02:07:09.359Z,996.17
2019-03-10T02:08:09.367Z,996.12
2019-03-10T02:09:09.353Z,996.10
2019-03-10T02:10:09.353Z,996.08
2019-03-10T02:11:09.361Z,996.04
2019-03-10T02:12:09.350Z,996.02
2019-03-10T02:13:09.358Z,995.96
2019-03-10T02:14:09.340Z,995.97
2019-03-10T02:15:09.349Z,995.83
2019-03-10T02:16:09.352Z,995.80
2019-03-10T02:17:09.351Z,995.80
2019-03-10T02:18:09.338Z,995.84
2019-03-10T02:19:08.861Z,995.81
2019-03-10T02:20:08.850Z,995.78
2019-03-10T02:21:08.863Z,995.69
2019-03-10T02:22:08.850Z,995.73
2019-03-10T02:23:08.850Z,995.66
2019-03-10T02:24:08.859Z,995.62
2019-03-10T02:25:08.837Z,995.62
2019-03-10T02:26:08.837Z,995.59
2019-03-10T02:27:08.847Z,995.62
2019-03-10T02:28:07.258Z,995.61
2019-03-10T02:29:08.861Z,995.59
2019-03-10T02:30:08.861Z,995.60
2019-03-10T02:31:08.855Z,995.63
2019-03-10T02:32:08.871Z,995.61
2019-03-10T02:33:08.850Z,995.59
2019-03-10T02:34:07.200Z,995.58
2019-03-10T02:35:08.869Z,995.54
2019-03-10T02:36:08.891Z,995.49
2019-03-10T02:37:08.851Z,995.46
2019-03-10T02:38:08.847Z,995.44
2019-03-10T02:39:08.849Z,995.37
2019-03-10T02:40:07.150Z,995.34
2019-03-10T02:41:08.849Z,995.30
2019-03-10T02:42:08.848Z,995.31
2019-03-10T02:43:08.849Z,995.25
2019-03-10T02:44:08.836Z,995.21
2019-03-10T02:45:08.855Z,995.18
2019-03-10T02:46:08.847Z,995.15
2019-03-10T02:47:08.846Z,995.15
2019-03-10T02:48:08.852Z,995.07
2019-03-10T02:49:08.857Z,995.01
2019-03-10T02:50:08.845Z,995.01
2019-03-10T02:51:08.853Z,995.01
2019-03-10T02:52:08.848Z,994.98
2019-03-10T02:53:08.848Z,994.98
2019-03-10T02:54:08.858Z,994.93
2019-03-10T02:55:08.853Z,994.93
2019-03-10T02:56:08.855Z,994.86
2019-03-10T02:57:08.847Z,994.93
2019-03-10T02:58:08.850Z,994.87
2019-03-10T02:59:08.836Z,994.89
2019-03-10T03:00:08.852Z,994.83
2019-03-10T03:01:08.851Z,994.73
2019-03-10T03:02:08.858Z,994.81
2019-03-10T03:03:06.921Z,994.77
2019-03-10T03:04:08.834Z,994.75
2019-03-10T03:05:08.846Z,994.68
2019-03-10T03:06:08.349Z,994.67
2019-03-10T03:07:08.358Z,994.71
2019-03-10T03:08:08.335Z,994.58
2019-03-10T03:09:06.812Z,994.66
2019-03-10T03:10:08.354Z,994.60
2019-03-10T03:11:08.336Z,994.59
2019-03-10T03:12:08.346Z,994.62
2019-03-10T03:13:08.355Z,994.65
2019-03-10T03:14:08.346Z,994.62
2019-03-10T03:15:08.345Z,994.56
2019-03-10T03:16:08.346Z,994.54
2019-03-10T03:17:08.342Z,994.45
2019-03-10T03:18:08.352Z,994.47
2019-03-10T03:19:08.343Z,994.48
2019-03-10T03:20:08.358Z,994.45
2019-03-10T03:21:08.347Z,994.39
2019-03-10T03:22:08.343Z,994.35
2019-03-10T03:23:08.352Z,994.34
2019-03-10T03:24:08.345Z,994.38
2019-03-10T03:25:08.349Z,994.37
2019-03-10T03:26:08.347Z,994.33
2019-03-10T03:27:08.353Z,994.32
2019-03-10T03:28:08.351Z,994.34
2019-03-10T03:29:08.347Z,994.34
2019-03-10T03:30:08.332Z,994.32
2019-03-10T03:31:08.349Z,994.29
2019-03-10T03:32:08.344Z,994.27
2019-03-10T03:33:08.365Z,994.19
2019-03-10T03:34:08.344Z,994.17
2019-03-10T03:35:08.344Z,994.16
2019-03-10T03:36:08.341Z,994.14
2019-03-10T03:37:08.337Z,994.16
2019-03-10T03:38:06.518Z,994.12
2019-03-10T03:39:08.345Z,994.01
2019-03-10T03:40:08.353Z,994.05
2019-03-10T03:41:08.365Z,993.99
2019-03-10T03:42:08.340Z,993.98
2019-03-10T03:43:08.340Z,993.96
2019-03-10T03:44:06.433Z,993.90
2019-03-10T03:45:08.341Z,993.83
2019-03-10T03:46:08.342Z,993.82
2019-03-10T03:47:08.360Z,993.85
2019-03-10T03:48:08.354Z,993.79
2019-03-10T03:49:08.339Z,993.87
2019-03-10T03:50:08.328Z,993.80
2019-03-10T03:51:08.382Z,993.82
2019-03-10T03:52:08.342Z,993.80
2019-03-10T03:53:07.842Z,993.79
2019-03-10T03:54:07.829Z,993.75
2019-03-10T03:55:07.840Z,993.74
2019-03-10T03:56:07.851Z,993.69
2019-03-10T03:57:07.853Z,993.66
2019-03-10T03:58:07.840Z,993.63
2019-03-10T03:59:07.857Z,993.61
2019-03-10T04:00:07.838Z,993.58
2019-03-10T04:01:06.244Z,993.57
2019-03-10T04:02:07.828Z,993.51
2019-03-10T04:03:07.849Z,993.52
2019-03-10T04:04:07.841Z,993.51
2019-03-10T04:05:07.839Z,993.51
2019-03-10T04:06:07.847Z,993.40
2019-03-10T04:07:07.840Z,993.43
2019-03-10T04:08:07.837Z,993.38
2019-03-10T04:09:07.854Z,993.33
2019-03-10T04:10:07.854Z,993.30
2019-03-10T04:11:07.839Z,993.32
2019-03-10T04:12:07.837Z,993.29
2019-03-10T04:13:07.856Z,993.29
2019-03-10T04:14:07.843Z,993.23
2019-03-10T04:15:07.865Z,993.21
2019-03-10T04:16:07.839Z,993.16
2019-03-10T04:17:07.841Z,993.17
2019-03-10T04:18:06.080Z,993.11
2019-03-10T04:19:07.839Z,993.09
2019-03-10T04:20:07.837Z,993.06
2019-03-10T04:21:07.844Z,993.07
2019-03-10T04:22:07.824Z,993.07
2019-03-10T04:23:07.836Z,993.05
2019-03-10T04:24:07.838Z,993.05
2019-03-10T04:25:07.839Z,993.02
2019-03-10T04:26:07.825Z,993.00
2019-03-10T04:27:07.847Z,992.92
2019-03-10T04:28:07.838Z,992.93
2019-03-10T04:29:07.837Z,992.95
2019-03-10T04:30:07.841Z,992.88
2019-03-10T04:31:07.837Z,992.88
2019-03-10T04:32:07.846Z,992.81
2019-03-10T04:33:07.824Z,992.78
2019-03-10T04:34:07.825Z,992.75
2019-03-10T04:35:07.842Z,992.73
2019-03-10T04:36:07.864Z,992.75
2019-03-10T04:37:07.836Z,992.76
2019-03-10T04:38:07.836Z,992.72
2019-03-10T04:39:06.836Z,992.62
2019-03-10T04:40:07.347Z,992.57
2019-03-10T04:41:05.836Z,992.53
2019-03-10T04:42:07.337Z,992.51
2019-03-10T04:43:07.335Z,992.43
2019-03-10T04:44:07.334Z,992.40
2019-03-10T04:45:07.323Z,992.38
2019-03-10T04:46:07.334Z,992.36
2019-03-10T04:47:07.400Z,992.31
2019-03-10T04:48:07.337Z,992.36
2019-03-10T04:49:07.356Z,992.24
2019-03-10T04:50:07.358Z,992.23
2019-03-10T04:51:07.343Z,992.17
2019-03-10T04:52:07.341Z,992.14
2019-03-10T04:53:07.322Z,992.14
2019-03-10T04:54:07.322Z,992.13
2019-03-10T04:55:07.343Z,992.10
2019-03-10T04:56:07.335Z,992.05
2019-03-10T04:57:07.335Z,992.05
2019-03-10T04:58:07.321Z,992.03
2019-03-10T04:59:07.332Z,992.05
2019-03-10T05:00:07.352Z,992.04
2019-03-10T05:01:07.345Z,992.02
2019-03-10T05:02:07.334Z,992.05
2019-03-10T05:03:07.337Z,992.02
2019-03-10T05:04:07.344Z,991.92
2019-03-10T05:05:07.338Z,991.86
2019-03-10T05:06:07.320Z,991.83
2019-03-10T05:07:07.331Z,991.78
2019-03-10T05:08:07.333Z,991.76
2019-03-10T05:09:07.343Z,991.79
2019-03-10T05:10:05.523Z,991.72
2019-03-10T05:11:07.363Z,991.69
2019-03-10T05:12:07.331Z,991.68
2019-03-10T05:13:07.320Z,991.67
2019-03-10T05:14:07.334Z,991.68
2019-03-10T05:15:07.341Z,991.65
2019-03-10T05:16:07.332Z,991.61
2019-03-10T05:17:07.343Z,991.59
2019-03-10T05:18:07.340Z,991.56
2019-03-10T05:19:07.330Z,991.52
2019-03-10T05:20:07.332Z,991.49
2019-03-10T05:21:07.343Z,991.46
2019-03-10T05:22:07.333Z,991.44
2019-03-10T05:23:07.332Z,991.44
2019-03-10T05:24:07.332Z,991.38
2019-03-10T05:25:07.318Z,991.34
2019-03-10T05:26:06.838Z,991.29
2019-03-10T05:27:05.316Z,991.25
2019-03-10T05:28:06.830Z,991.26
2019-03-10T05:29:06.830Z,991.19
2019-03-10T05:30:06.819Z,991.14
2019-03-10T05:31:06.843Z,991.15
2019-03-10T05:32:06.831Z,991.21
2019-03-10T05:33:06.833Z,991.11
2019-03-10T05:34:06.830Z,991.12
2019-03-10T05:35:06.846Z,991.14
2019-03-10T05:36:06.874Z,991.11
2019-03-10T05:37:06.850Z,991.01
2019-03-10T05:38:06.835Z,991.00
2019-03-10T05:39:06.831Z,990.96
2019-03-10T05:40:06.829Z,990.91
2019-03-10T05:41:06.844Z,990.93
2019-03-10T05:42:06.844Z,990.88
2019-03-10T05:43:06.858Z,990.88
2019-03-10T05:44:06.827Z,990.86
2019-03-10T05:45:06.818Z,990.84
2019-03-10T05:46:06.845Z,990.82
2019-03-10T05:47:06.833Z,990.79
2019-03-10T05:48:06.840Z,990.77
2019-03-10T05:49:06.817Z,990.76
2019-03-10T05:50:06.842Z,990.68
2019-03-10T05:51:06.828Z,990.61
2019-03-10T05:52:06.838Z,990.61
2019-03-10T05:53:06.865Z,990.59
2019-03-10T05:54:06.830Z,990.57
2019-03-10T05:55:06.827Z,990.53
2019-03-10T05:56:06.834Z,990.49
2019-03-10T05:57:06.829Z,990.50
2019-03-10T05:58:06.835Z,990.50
2019-03-10T05:59:06.825Z,990.49
2019-03-10T06:00:06.829Z,990.37
2019-03-10T06:01:06.832Z,990.36
2019-03-10T06:02:06.886Z,990.40
2019-03-10T06:03:06.825Z,990.33
2019-03-10T06:04:06.834Z,990.37
2019-03-10T06:05:06.827Z,990.36
2019-03-10T06:06:06.860Z,990.29
2019-03-10T06:07:04.891Z,990.22
2019-03-10T06:08:06.890Z,990.21
2019-03-10T06:09:06.829Z,990.20
2019-03-10T06:10:06.824Z,990.20
2019-03-10T06:11:06.824Z,990.20
2019-03-10T06:12:06.895Z,990.10
2019-03-10T06:13:06.329Z,990.12
2019-03-10T06:14:06.340Z,990.15
2019-03-10T06:15:06.325Z,990.10
2019-03-10T06:16:06.323Z,990.02
2019-03-10T06:17:06.329Z,989.96
2019-03-10T06:18:13.516Z,990.00
2019-03-10T06:19:07.330Z,989.94
2019-03-10T06:20:06.331Z,989.89
2019-03-10T06:21:06.313Z,989.87
2019-03-10T06:22:06.329Z,989.77
2019-03-10T06:23:06.313Z,989.69
2019-03-10T06:24:06.333Z,989.68
2019-03-10T06:25:06.363Z,989.70
2019-03-10T06:26:06.371Z,989.60
2019-03-10T06:27:06.365Z,989.56
2019-03-10T06:28:06.341Z,989.52
2019-03-10T06:29:06.336Z,989.42
2019-03-10T06:30:04.638Z,989.38
2019-03-10T06:31:06.339Z,989.35
2019-03-10T06:32:06.360Z,989.31
2019-03-10T06:33:06.340Z,989.30
2019-03-10T06:34:06.325Z,989.28
2019-03-10T06:35:06.331Z,989.33
2019-03-10T06:36:06.335Z,989.29
2019-03-10T06:37:06.354Z,989.27
2019-03-10T06:38:06.325Z,989.30
2019-03-10T06:39:06.334Z,989.32
2019-03-10T06:40:06.328Z,989.28
2019-03-10T06:41:06.335Z,989.31
2019-03-10T06:42:06.352Z,989.29
2019-03-10T06:43:06.333Z,989.29
2019-03-10T06:44:06.324Z,989.30
2019-03-10T06:45:06.323Z,989.28
2019-03-10T06:46:06.322Z,989.21
2019-03-10T06:47:06.330Z,989.19
2019-03-10T06:48:06.323Z,989.14
2019-03-10T06:49:06.319Z,989.11
2019-03-10T06:50:06.331Z,989.11
2019-03-10T06:51:06.354Z,989.03
2019-03-10T06:52:06.333Z,989.02
2019-03-10T06:53:05.825Z,988.95
2019-03-10T06:54:06.311Z,988.94
2019-03-10T06:55:06.319Z,988.85
2019-03-10T06:56:06.322Z,988.91
2019-03-10T06:57:06.327Z,988.87
2019-03-10T06:58:06.333Z,988.88
2019-03-10T06:59:06.330Z,988.86
2019-03-10T07:00:05.819Z,988.77
2019-03-10T07:01:05.825Z,988.76
2019-03-10T07:02:05.808Z,988.72
2019-03-10T07:03:05.828Z,988.76
2019-03-10T07:04:05.823Z,988.67
2019-03-10T07:05:05.823Z,988.60
2019-03-10T07:06:06.818Z,988.57
2019-03-10T07:07:05.833Z,988.55
2019-03-10T07:08:05.824Z,988.55
2019-03-10T07:09:04.244Z,988.49
2019-03-10T07:10:05.819Z,988.43
2019-03-10T07:11:05.826Z,988.38
2019-03-10T07:12:05.823Z,988.35
2019-03-10T07:13:05.824Z,988.32
2019-03-10T07:14:05.819Z,988.28
2019-03-10T07:15:05.820Z,988.23
2019-03-10T07:16:05.818Z,988.21
2019-03-10T07:17:05.822Z,988.21
2019-03-10T07:18:05.830Z,988.21
2019-03-10T07:19:05.818Z,988.24
2019-03-10T07:20:04.102Z,988.28
2019-03-10T07:21:05.816Z,988.31
2019-03-10T07:22:05.818Z,988.27
2019-03-10T07:23:05.827Z,988.26
2019-03-10T07:24:05.818Z,988.24
2019-03-10T07:25:05.816Z,988.21
2019-03-10T07:26:05.815Z,988.16
2019-03-10T07:27:05.816Z,988.08
2019-03-10T07:28:05.818Z,988.08
2019-03-10T07:29:05.831Z,988.09
2019-03-10T07:30:05.816Z,988.01
2019-03-10T07:31:04.823Z,988.00
2019-03-10T07:32:05.821Z,988.03
2019-03-10T07:33:05.829Z,987.99
2019-03-10T07:34:05.836Z,987.97
2019-03-10T07:35:05.819Z,987.88
2019-03-10T07:36:05.817Z,987.82
2019-03-10T07:37:05.817Z,987.77
2019-03-10T07:38:05.823Z,987.71
2019-03-10T07:39:05.814Z,987.69
2019-03-10T07:40:05.829Z,987.59
2019-03-10T07:41:05.817Z,987.55
2019-03-10T07:42:03.879Z,987.58
2019-03-10T07:43:05.816Z,987.55
2019-03-10T07:44:05.826Z,987.56
2019-03-10T07:45:05.824Z,987.53
2019-03-10T07:46:05.816Z,987.55
2019-03-10T07:47:05.333Z,987.48
2019-03-10T07:48:05.340Z,987.33
2019-03-10T07:49:05.328Z,987.33
2019-03-10T07:50:05.324Z,987.32
2019-03-10T07:51:05.340Z,987.27
2019-03-10T07:52:05.302Z,987.23
2019-03-10T07:53:05.313Z,987.19
2019-03-10T07:54:05.360Z,987.15
2019-03-10T07:55:05.325Z,987.16
2019-03-10T07:56:05.318Z,987.05
2019-03-10T07:57:05.312Z,987.02
2019-03-10T07:58:05.315Z,987.05
2019-03-10T07:59:05.303Z,987.00
2019-03-10T08:00:05.318Z,986.95
2019-03-10T08:01:05.323Z,986.88
2019-03-10T08:02:05.315Z,986.88
2019-03-10T08:03:05.315Z,986.84
2019-03-10T08:04:04.315Z,986.82
2019-03-10T08:05:05.314Z,986.78
2019-03-10T08:06:05.319Z,986.94
2019-03-10T08:07:05.300Z,986.92
2019-03-10T08:08:05.313Z,986.96
2019-03-10T08:09:06.317Z,986.84
2019-03-10T08:10:05.312Z,986.74
2019-03-10T08:11:05.311Z,986.65
2019-03-10T08:12:05.323Z,986.62
2019-03-10T08:13:05.313Z,986.58
2019-03-10T08:14:05.322Z,986.66
2019-03-10T08:15:05.341Z,986.69
2019-03-10T08:16:05.312Z,986.74
2019-03-10T08:17:05.311Z,986.73
2019-03-10T08:18:05.320Z,986.72
2019-03-10T08:19:05.312Z,986.72
2019-03-10T08:20:05.315Z,986.73
2019-03-10T08:21:05.313Z,986.71
2019-03-10T08:22:05.313Z,986.66
2019-03-10T08:23:05.322Z,986.57
2019-03-10T08:24:05.309Z,986.53
2019-03-10T08:25:05.329Z,986.48
2019-03-10T08:26:05.311Z,986.47
2019-03-10T08:27:05.311Z,986.49
2019-03-10T08:28:05.309Z,986.49
2019-03-10T08:29:05.318Z,986.51
2019-03-10T08:30:05.317Z,986.56
2019-03-10T08:31:05.309Z,986.55
2019-03-10T08:32:05.310Z,986.54
2019-03-10T08:33:04.317Z,986.40
2019-03-10T08:34:04.810Z,986.36
2019-03-10T08:35:04.821Z,986.35
2019-03-10T08:36:04.809Z,986.27
2019-03-10T08:37:03.272Z,986.29
2019-03-10T08:38:04.807Z,986.23
2019-03-10T08:39:04.801Z,986.29
2019-03-10T08:40:04.821Z,986.27
2019-03-10T08:41:04.826Z,986.31
2019-03-10T08:42:04.814Z,986.33
2019-03-10T08:43:04.807Z,986.35
2019-03-10T08:44:04.809Z,986.35
2019-03-10T08:45:04.817Z,986.39
2019-03-10T08:46:04.818Z,986.38
2019-03-10T08:47:04.809Z,986.37
2019-03-10T08:48:04.796Z,986.34
2019-03-10T08:49:04.806Z,986.30
2019-03-10T08:50:04.807Z,986.28
2019-03-10T08:51:04.816Z,986.28
2019-03-10T08:52:04.810Z,986.25
2019-03-10T08:53:04.809Z,986.23
2019-03-10T08:54:03.098Z,986.09
2019-03-10T08:55:04.817Z,986.00
2019-03-10T08:56:06.007Z,985.92
2019-03-10T08:57:04.828Z,985.89
2019-03-10T08:58:04.808Z,986.03
2019-03-10T08:59:04.807Z,986.14
2019-03-10T09:00:04.797Z,986.08
2019-03-10T09:01:04.807Z,985.98
2019-03-10T09:02:04.816Z,985.83
2019-03-10T09:03:04.794Z,985.74
2019-03-10T09:04:04.808Z,985.64
2019-03-10T09:05:04.810Z,985.68
2019-03-10T09:06:04.807Z,985.88
2019-03-10T09:07:04.821Z,985.91
2019-03-10T09:08:04.804Z,985.89
2019-03-10T09:09:04.807Z,985.80
2019-03-10T09:10:04.814Z,985.77
2019-03-10T09:11:04.794Z,985.69
2019-03-10T09:12:04.809Z,985.74
2019-03-10T09:13:04.815Z,985.73
2019-03-10T09:14:04.810Z,985.72
2019-03-10T09:15:04.805Z,985.69
2019-03-10T09:16:04.806Z,985.53
2019-03-10T09:17:04.806Z,985.55
2019-03-10T09:18:04.823Z,985.58
2019-03-10T09:19:04.806Z,985.49
2019-03-10T09:20:04.294Z,985.52
2019-03-10T09:21:04.302Z,985.47
2019-03-10T09:22:04.303Z,985.36
2019-03-10T09:23:04.292Z,985.32
2019-03-10T09:24:04.321Z,985.35
2019-03-10T09:25:04.305Z,985.36
2019-03-10T09:26:04.308Z,985.36
2019-03-10T09:27:04.306Z,985.41
2019-03-10T09:28:04.303Z,985.34
2019-03-10T09:29:04.327Z,985.33
2019-03-10T09:30:04.310Z,985.38
2019-03-10T09:31:04.314Z,985.34
2019-03-10T09:32:04.302Z,985.33
2019-03-10T09:33:02.662Z,985.33
2019-03-10T09:34:04.303Z,985.31
2019-03-10T09:35:04.301Z,985.28
2019-03-10T09:36:04.324Z,985.20
2019-03-10T09:37:04.316Z,985.20
2019-03-10T09:38:04.307Z,985.10
2019-03-10T09:39:04.304Z,985.05
2019-03-10T09:40:04.291Z,984.97
2019-03-10T09:41:04.357Z,984.99
2019-03-10T09:42:04.309Z,985.00
2019-03-10T09:43:04.301Z,985.00
2019-03-10T09:44:04.303Z,984.96
2019-03-10T09:45:04.303Z,984.93
2019-03-10T09:46:04.306Z,984.82
2019-03-10T09:47:04.291Z,984.80
2019-03-10T09:48:04.315Z,984.75
2019-03-10T09:49:04.303Z,984.71
2019-03-10T09:50:02.477Z,984.77
2019-03-10T09:51:04.313Z,984.75
2019-03-10T09:52:04.297Z,984.71
2019-03-10T09:53:04.309Z,984.68
2019-03-10T09:54:04.308Z,984.64
2019-03-10T09:55:04.295Z,984.67
2019-03-10T09:56:04.301Z,984.47
2019-03-10T09:57:04.301Z,984.49
2019-03-10T09:58:04.302Z,984.45
2019-03-10T09:59:04.313Z,984.50
2019-03-10T10:00:04.292Z,984.36
2019-03-10T10:01:04.299Z,984.38
2019-03-10T10:02:04.302Z,984.37
2019-03-10T10:03:04.343Z,984.35
2019-03-10T10:04:04.304Z,984.25
2019-03-10T10:05:03.310Z,984.26
2019-03-10T10:06:03.314Z,984.22
2019-03-10T10:07:02.328Z,984.18
2019-03-10T10:08:03.800Z,984.23
2019-03-10T10:09:03.800Z,984.20
2019-03-10T10:10:03.800Z,984.11
2019-03-10T10:11:03.801Z,984.12
2019-03-10T10:12:12.943Z,984.17
2019-03-10T10:13:04.806Z,984.12
2019-03-10T10:14:03.804Z,984.20
2019-03-10T10:15:03.812Z,984.13
2019-03-10T10:16:03.812Z,984.20
2019-03-10T10:17:03.799Z,984.11
2019-03-10T10:18:03.808Z,984.02
2019-03-10T10:19:03.797Z,984.08
2019-03-10T10:20:03.811Z,984.00
2019-03-10T10:21:03.801Z,984.01
2019-03-10T10:22:03.800Z,984.04
2019-03-10T10:23:03.805Z,984.06
2019-03-10T10:24:02.123Z,984.04
2019-03-10T10:25:03.818Z,983.97
2019-03-10T10:26:03.799Z,983.95
2019-03-10T10:27:03.811Z,983.87
2019-03-10T10:28:03.802Z,983.82
2019-03-10T10:29:03.799Z,983.94
2019-03-10T10:30:03.802Z,983.93
2019-03-10T10:31:03.800Z,983.85
2019-03-10T10:32:03.803Z,983.93
2019-03-10T10:33:03.807Z,983.89
2019-03-10T10:34:03.828Z,983.89
2019-03-10T10:35:03.800Z,983.90
2019-03-10T10:36:03.798Z,983.89
2019-03-10T10:37:03.801Z,983.95
2019-03-10T10:38:03.798Z,983.88
2019-03-10T10:39:03.786Z,983.90
2019-03-10T10:40:03.825Z,983.80
2019-03-10T10:41:03.799Z,983.94
2019-03-10T10:42:03.799Z,984.04
2019-03-10T10:43:03.829Z,984.00
2019-03-10T10:44:03.824Z,983.93
2019-03-10T10:45:03.811Z,984.02
2019-03-10T10:46:03.797Z,984.01
2019-03-10T10:47:03.786Z,983.94
2019-03-10T10:48:03.811Z,983.96
2019-03-10T10:49:03.813Z,983.96
2019-03-10T10:50:03.811Z,983.94
2019-03-10T10:51:03.811Z,983.90
2019-03-10T10:52:03.808Z,983.93
2019-03-10T10:53:03.320Z,983.98
2019-03-10T10:54:03.310Z,983.85
2019-03-10T10:55:03.320Z,983.96
2019-03-10T10:56:03.326Z,983.90
2019-03-10T10:57:03.332Z,984.01
2019-03-10T10:58:05.364Z,983.90
2019-03-10T10:59:03.305Z,983.91
2019-03-10T11:00:03.315Z,983.90
2019-03-10T11:01:03.299Z,983.95
2019-03-10T11:02:03.309Z,983.83
2019-03-10T11:03:03.309Z,983.94
2019-03-10T11:04:03.286Z,983.77
2019-03-10T11:05:03.297Z,983.75
2019-03-10T11:06:03.314Z,983.75
2019-03-10T11:07:03.343Z,983.80
2019-03-10T11:08:03.303Z,983.73
2019-03-10T11:09:03.305Z,983.82
2019-03-10T11:10:01.606Z,983.77
2019-03-10T11:11:03.285Z,983.72
2019-03-10T11:12:03.303Z,983.67
2019-03-10T11:13:03.306Z,983.54
2019-03-10T11:14:03.309Z,983.56
2019-03-10T11:15:03.299Z,983.42
2019-03-10T11:16:03.296Z,983.53
2019-03-10T11:17:03.295Z,983.44
2019-03-10T11:18:09.340Z,983.66
2019-03-10T11:20:14.072Z,983.41
2019-03-10T11:21:13.974Z,983.35
2019-03-10T11:22:13.961Z,983.32
2019-03-10T11:23:13.992Z,983.25
2019-03-10T11:24:13.939Z,983.31
2019-03-10T11:25:14.044Z,983.35
2019-03-10T11:26:13.923Z,983.35
2019-03-10T11:27:13.933Z,983.36
2019-03-10T11:28:13.921Z,983.29
2019-03-10T11:29:13.891Z,983.24
2019-03-10T11:30:15.488Z,983.18
2019-03-10T11:31:15.477Z,983.32
2019-03-10T11:32:15.935Z,983.21
2019-03-10T11:33:15.456Z,983.16
2019-03-10T11:34:16.636Z,983.11
2019-03-10T11:35:24.088Z,983.15
2019-03-10T11:36:13.834Z,983.16
2019-03-10T11:37:13.830Z,983.05
2019-03-10T11:38:13.809Z,983.08
2019-03-10T11:39:13.794Z,983.14
2019-03-10T11:40:13.784Z,983.14
2019-03-10T11:41:13.873Z,982.97
2019-03-10T11:42:13.754Z,983.09
2019-03-10T11:43:13.775Z,983.00
2019-03-10T11:44:13.714Z,982.99
2019-03-10T11:45:13.748Z,982.97
2019-03-10T11:46:13.822Z,983.00
2019-03-10T11:47:13.677Z,983.06
2019-03-10T11:48:13.687Z,982.99
2019-03-10T11:49:13.651Z,983.08
2019-03-10T11:50:15.195Z,983.49
2019-03-10T11:51:13.947Z,983.06
2019-03-10T11:52:13.636Z,983.27
2019-03-10T11:53:19.109Z,983.18
2019-03-10T11:54:14.653Z,983.13
2019-03-10T11:55:13.709Z,983.06
2019-03-10T11:57:32.220Z,983.51
2019-03-10T11:58:31.971Z,983.07
2019-03-10T11:59:31.973Z,982.97
2019-03-10T12:00:31.986Z,983.22
2019-03-10T12:01:31.937Z,983.01
2019-03-10T12:02:31.930Z,983.06
2019-03-10T12:03:31.912Z,982.98
2019-03-10T12:04:31.907Z,983.00
2019-03-10T12:05:31.900Z,982.99
2019-03-10T12:06:31.922Z,982.90
2019-03-10T12:07:31.923Z,982.79
2019-03-10T12:08:31.871Z,982.83
2019-03-10T12:09:31.854Z,983.03
2019-03-10T12:10:31.845Z,982.82
2019-03-10T12:11:31.850Z,982.94
2019-03-10T12:12:31.817Z,982.96
2019-03-10T12:13:31.826Z,983.13
2019-03-10T12:14:31.807Z,983.04
2019-03-10T12:15:31.782Z,982.93
2019-03-10T12:16:31.774Z,982.91
2019-03-10T12:17:31.763Z,983.04
2019-03-10T12:18:31.775Z,982.90
2019-03-10T12:19:31.744Z,982.90
2019-03-10T12:20:31.731Z,982.77
2019-03-10T12:21:31.723Z,982.99
2019-03-10T12:22:31.719Z,983.08
2019-03-10T12:23:31.693Z,982.97
2019-03-10T12:24:31.710Z,982.94
2019-03-10T12:25:31.677Z,982.92
2019-03-10T12:26:31.668Z,982.82
2019-03-10T12:27:31.661Z,982.90
2019-03-10T12:28:31.689Z,982.91
2019-03-10T12:29:31.630Z,982.98
2019-03-10T12:30:31.630Z,982.90